Bloomer, Wisconsin
Current Conditions -  °F | °C
As of 3:15 AM on Monday 20 Oct 2014 (Local Time) from KY23 Reporting Station
Clear Clear  
Wind Chill: 44°   Ceiling: Unl
Heat Index: 44°   Visibility: 10mi
Dew Point: 41°   Wind: 3mph
Humidity: 90%   Direction: 270°W
Pressure: 29.85"   Gusts: NA
Location:  45.1°N, 91.49°W
Report Text: KY23 200815Z AUTO 27003KT 10SM CLR 07/05 A2985 RMK AO2 T00670051
Loading
Personal Weather Stations






























Interactive Weather Map New forecast layout! Learn more

10-Day Weather Forecast

Advertisements
Track Severe Weather on mobile